createdAt,value
2017-04-07T08:23:10.423Z,43.49
2017-04-07T08:28:10.393Z,42.65
2017-04-07T08:33:10.364Z,40.11
2017-04-07T08:38:10.338Z,46.22
2017-04-07T08:43:10.311Z,39.94
2017-04-07T08:48:10.281Z,47.23
2017-04-07T08:53:10.264Z,45.9
2017-04-07T08:58:10.237Z,51.81
2017-04-07T09:03:10.187Z,52.15
2017-04-07T09:08:10.162Z,50.93
2017-04-07T09:13:10.168Z,50.2
2017-04-07T09:18:10.085Z,50.88
2017-04-07T09:23:10.052Z,40.78
2017-04-07T09:28:10.125Z,39.87
2017-04-07T09:33:09.985Z,40.74
2017-04-07T09:38:09.951Z,41.77
2017-04-07T09:43:09.914Z,50.16
2017-04-07T09:48:09.877Z,43.24
2017-04-07T09:53:09.855Z,46.96
2017-04-07T09:58:09.807Z,43.69
2017-04-07T10:03:09.774Z,50.34
2017-04-07T10:08:09.430Z,45.18
2017-04-07T10:13:09.698Z,43.78
2017-04-07T10:18:09.650Z,50.71
2017-04-07T10:23:09.668Z,51.78
2017-04-07T10:28:09.722Z,53.09
2017-04-07T10:33:09.898Z,55.11
2017-04-07T10:38:09.646Z,55.51
2017-04-07T10:43:09.710Z,52.99
2017-04-07T10:48:09.642Z,47.03
2017-04-07T10:53:09.666Z,50.63
2017-04-07T10:58:09.650Z,50.02
2017-04-07T11:03:09.662Z,45.9
2017-04-07T11:08:09.648Z,49.38
2017-04-07T11:13:09.670Z,49.77
2017-04-07T11:18:09.344Z,47.97
2017-04-07T11:23:09.662Z,48.82
2017-04-07T11:28:09.777Z,51.56
2017-04-07T11:33:09.441Z,51.64
2017-04-07T11:38:09.689Z,51.39
2017-04-07T11:43:09.729Z,52.93
2017-04-07T11:48:09.917Z,53.92
2017-04-07T11:53:09.699Z,53.87
2017-04-07T11:58:09.932Z,54.4
2017-04-07T12:03:09.714Z,54.43
2017-04-07T12:08:09.715Z,53.14
2017-04-07T12:13:09.779Z,54.23
2017-04-07T12:18:09.798Z,53.42
2017-04-07T12:23:09.768Z,53.87
2017-04-07T12:28:09.738Z,53.87
2017-04-07T12:33:09.809Z,53.75
2017-04-07T12:38:09.829Z,53.62
2017-04-07T12:43:09.745Z,54.01
2017-04-07T12:48:09.744Z,53.81
2017-04-07T12:53:09.976Z,53.42
2017-04-07T12:58:09.741Z,53.14
2017-04-07T13:03:09.404Z,53.72
2017-04-07T13:08:09.667Z,54.01
2017-04-07T13:13:09.624Z,54.66
2017-04-07T13:18:09.593Z,55.25
2017-04-07T13:23:09.247Z,54.93
2017-04-07T13:28:09.521Z,54.93
2017-04-07T13:33:09.185Z,55.39
2017-04-07T13:38:09.439Z,55.29
2017-04-07T13:43:09.492Z,55.36
2017-04-07T13:48:09.360Z,55.55
2017-04-07T13:53:09.431Z,55.75
2017-04-07T13:58:09.287Z,55.73
2017-04-07T14:03:09.246Z,56.6
2017-04-07T14:08:09.207Z,56.28
2017-04-07T14:13:09.162Z,56.83
2017-04-07T14:18:09.156Z,56.25
2017-04-07T14:23:09.081Z,56.25
2017-04-07T14:28:09.049Z,57.03
2017-04-07T14:33:09.005Z,56.83
2017-04-07T14:38:08.964Z,56.9
2017-04-07T14:43:08.923Z,57
2017-04-07T14:48:08.885Z,57.84
2017-04-07T14:53:08.849Z,57.84
2017-04-07T14:58:08.800Z,57.84
2017-04-07T15:03:08.761Z,57.81
2017-04-07T15:08:08.715Z,58.01
2017-04-07T15:13:08.680Z,58.01
2017-04-07T15:18:08.645Z,57.59
2017-04-07T15:23:08.627Z,58.17
2017-04-07T15:28:08.636Z,58.17
2017-04-07T15:33:08.612Z,55.15
2017-04-07T15:38:08.648Z,55.53
2017-04-07T15:43:08.622Z,54.93
2017-04-07T15:48:08.608Z,55.11
2017-04-07T15:53:08.599Z,55.11
2017-04-07T15:58:08.637Z,55.31
2017-04-07T16:03:08.599Z,55.67
2017-04-07T16:08:08.616Z,56.63
2017-04-07T16:13:08.583Z,57.89
2017-04-07T16:18:08.645Z,58.93
2017-04-07T16:23:08.576Z,59.22
2017-04-07T16:28:08.568Z,60.8
2017-04-07T16:33:08.549Z,62.15
2017-04-07T16:38:08.630Z,64.02
2017-04-07T16:43:08.526Z,64.18
2017-04-07T16:48:08.509Z,64.95
2017-04-07T16:53:08.496Z,65.98
2017-04-07T16:58:08.496Z,66.62
2017-04-07T17:03:08.147Z,67.26
2017-04-07T17:08:08.413Z,67.65
2017-04-07T17:13:08.404Z,67.99
2017-04-07T17:18:08.368Z,68.63
2017-04-07T17:23:08.327Z,70.56
2017-04-07T17:28:08.274Z,70.62
2017-04-07T17:33:08.204Z,72.54
2017-04-07T17:38:08.144Z,72.83
2017-04-07T17:43:07.810Z,72.83
2017-04-07T17:48:08.010Z,73.18
2017-04-07T17:53:07.949Z,74.43
2017-04-07T17:58:07.867Z,74.13
2017-04-07T18:03:07.816Z,75.38
2017-04-07T18:08:07.776Z,75.35
2017-04-07T18:13:07.795Z,76.79
2017-04-07T18:18:07.708Z,76.4
2017-04-07T18:23:07.688Z,77.26
2017-04-07T18:28:07.643Z,77.33
2017-04-07T18:33:07.618Z,77.51
2017-04-07T18:38:07.285Z,78.67
2017-04-07T18:43:07.566Z,78.53
2017-04-07T18:48:07.515Z,79.68
2017-04-07T18:53:07.473Z,79.39
2017-04-07T18:58:07.432Z,79.78
2017-04-07T19:03:07.423Z,80.32
2017-04-07T19:08:07.368Z,80.22
2017-04-07T19:13:07.347Z,80.7
2017-04-07T19:18:07.302Z,80.99
2017-04-07T19:23:07.263Z,80.18
2017-04-07T19:28:07.266Z,81.04
2017-04-07T19:33:07.200Z,81.9
2017-04-07T19:38:07.161Z,82.57
2017-04-07T19:43:07.145Z,82.57
2017-04-07T19:48:07.080Z,81.62
2017-04-07T19:53:07.071Z,82.48
2017-04-07T19:58:07.004Z,82.53
2017-04-07T20:03:06.973Z,82.82
2017-04-07T20:08:06.941Z,82.06
2017-04-07T20:13:06.893Z,81.86
2017-04-07T20:18:07.005Z,83.39
2017-04-07T20:23:06.820Z,81.77
2017-04-07T20:28:06.791Z,80.14
2017-04-07T20:33:06.748Z,81.2
2017-04-07T20:38:06.707Z,81.29
2017-04-07T20:43:06.374Z,82.53
2017-04-07T20:48:06.653Z,83.87
2017-04-07T20:53:06.599Z,81.38
2017-04-07T20:58:06.603Z,82.63
2017-04-07T21:03:06.533Z,81.86
2017-04-07T21:08:06.505Z,81.29
2017-04-07T21:13:06.497Z,82.06
2017-04-07T21:18:06.482Z,81.57
2017-04-07T21:23:06.421Z,81.67
2017-04-07T21:28:06.346Z,82.43
2017-04-07T21:33:06.302Z,83.01
2017-04-07T21:38:06.270Z,83.68
2017-04-07T21:43:06.272Z,84.06
2017-04-07T21:48:06.192Z,84.06
